Time;durP1;ratioP1;P1;durP2;ratioP2;P2;SDS_P1;SDS_P2;PMS_P1;PMS_P2;Temp;Humidity;BMP_temperature;BMP_pressure;BME280_temperature;BME280_humidity;BME280_pressure;Samples;Min_cycle;Max_cycle;Signal;HPM_P1;HPM_P2
2022/10/16 00:01:07;;;;;;;8.65;3.20;;;;;;;13.33;72.63;93003.00;2051432;70;20181;-79
2022/10/16 00:03:32;;;;;;;4.70;3.30;;;;;;;13.35;72.30;93005.22;2051581;70;20601;-79
2022/10/16 00:06:00;;;;;;;6.30;3.72;;;;;;;13.28;73.27;93006.22;2051665;70;20331;-79
2022/10/16 00:08:25;;;;;;;6.18;3.22;;;;;;;13.35;72.07;93008.78;2051758;70;20127;-79
2022/10/16 00:10:51;;;;;;;5.63;3.08;;;;;;;13.38;72.12;93001.88;2051623;70;20534;-78
2022/10/16 00:13:17;;;;;;;10.55;3.45;;;;;;;13.37;73.01;93008.13;2051789;70;20189;-78
2022/10/16 00:15:43;;;;;;;8.95;2.92;;;;;;;13.42;72.04;93009.84;2051404;70;20553;-78
2022/10/16 00:18:11;;;;;;;6.20;3.20;;;;;;;13.43;72.15;93006.41;2051619;70;20166;-77
2022/10/16 00:20:37;;;;;;;6.47;3.65;;;;;;;13.43;71.84;93003.56;2051642;70;20498;-79
2022/10/16 00:23:04;;;;;;;5.80;3.20;;;;;;;13.45;71.68;92998.00;2051707;70;20610;-77
2022/10/16 00:25:32;;;;;;;10.25;3.33;;;;;;;13.44;72.53;92995.81;2053774;69;20142;-74
2022/10/16 00:27:59;;;;;;;7.43;2.58;;;;;;;13.44;72.67;92999.38;2051961;69;20185;-76
2022/10/16 00:30:27;;;;;;;5.57;2.55;;;;;;;13.25;73.08;93002.56;2051571;70;20257;-78
2022/10/16 00:32:53;;;;;;;6.18;2.85;;;;;;;13.23;73.63;93002.44;2051500;70;20142;-78
2022/10/16 00:35:18;;;;;;;6.47;2.80;;;;;;;13.34;73.05;93001.66;2051073;70;20186;-78
2022/10/16 00:37:44;;;;;;;6.88;2.90;;;;;;;13.40;72.20;93007.63;2051677;70;20129;-79
2022/10/16 00:40:10;;;;;;;10.20;3.20;;;;;;;13.49;72.01;93014.47;2051842;70;20577;-78
2022/10/16 00:42:37;;;;;;;6.60;2.55;;;;;;;13.46;72.63;93012.88;2051906;70;20146;-78
2022/10/16 00:45:04;;;;;;;6.93;2.95;;;;;;;13.61;71.06;93011.59;2051887;70;20150;-78
2022/10/16 00:47:38;;;;;;;8.02;2.83;;;;;;;13.52;71.73;93009.69;2051558;70;20134;-78
2022/10/16 00:50:33;;;;;;;6.57;2.97;;;;;;;13.56;71.53;93009.88;2052052;70;20162;-78
2022/10/16 00:53:01;;;;;;;5.53;2.65;;;;;;;13.52;71.66;92999.09;2051696;70;20170;-77
2022/10/16 00:55:29;;;;;;;9.93;2.80;;;;;;;13.62;70.56;93010.22;2051865;70;20606;-79
2022/10/16 00:57:57;;;;;;;7.10;2.78;;;;;;;13.53;72.10;93008.31;2051583;70;20244;-79
2022/10/16 01:00:26;;;;;;;5.70;2.90;;;;;;;13.66;70.89;93014.00;2051596;70;20146;-74
2022/10/16 01:02:57;;;;;;;4.05;2.55;;;;;;;13.64;70.92;93002.56;2048285;70;20151;-79
2022/10/16 01:05:28;;;;;;;4.28;2.50;;;;;;;13.59;71.65;93009.38;2051839;70;20170;-76
2022/10/16 01:08:04;;;;;;;9.98;2.88;;;;;;;13.67;71.04;93012.63;2051757;70;20614;-78
2022/10/16 01:10:40;;;;;;;5.65;2.67;;;;;;;13.69;70.33;93012.00;2051647;70;20232;-78
2022/10/16 01:13:17;;;;;;;3.75;2.40;;;;;;;13.71;69.95;93012.13;2054080;70;20190;-78
2022/10/16 01:16:15;;;;;;;4.93;2.60;;;;;;;13.64;71.23;93013.88;2050879;70;20158;-80
2022/10/16 01:18:40;;;;;;;6.63;2.75;;;;;;;13.71;69.98;93009.31;2051202;70;20143;-79
2022/10/16 01:21:10;;;;;;;6.95;2.60;;;;;;;13.73;70.29;93009.41;2051645;70;20177;-76
2022/10/16 01:24:02;;;;;;;6.05;3.00;;;;;;;13.74;70.44;93016.53;2051826;70;20253;-76
2022/10/16 01:26:43;;;;;;;4.57;2.47;;;;;;;13.75;70.43;93012.34;2053863;70;20173;-79
2022/10/16 01:29:20;;;;;;;10.95;2.30;;;;;;;13.75;70.80;93018.00;2051258;70;20321;-81
2022/10/16 01:31:53;;;;;;;4.28;2.60;;;;;;;13.77;69.47;93020.22;2051763;70;20260;-80
2022/10/16 01:34:25;;;;;;;6.00;3.00;;;;;;;13.73;70.14;93018.63;2054048;70;20174;-79
2022/10/16 01:37:00;;;;;;;8.70;3.20;;;;;;;13.67;70.53;93017.56;2051727;70;20628;-79
2022/10/16 01:39:31;;;;;;;4.53;2.92;;;;;;;13.68;70.54;93021.84;2048138;70;20150;-79
2022/10/16 01:42:25;;;;;;;6.53;3.40;;;;;;;13.67;70.59;93038.09;2051972;70;20166;-79
2022/10/16 01:44:54;;;;;;;10.05;2.60;;;;;;;13.65;70.59;93042.91;2051412;70;20142;-79
2022/10/16 01:47:23;;;;;;;11.13;2.50;;;;;;;13.63;70.82;93035.06;2051158;70;20257;-79
2022/10/16 01:49:51;;;;;;;6.22;2.35;;;;;;;13.67;70.77;93023.22;2052048;70;20524;-79
2022/10/16 01:52:23;;;;;;;5.60;2.20;;;;;;;13.67;70.46;93017.56;2051781;70;20147;-79
2022/10/16 01:54:53;;;;;;;6.78;2.90;;;;;;;13.63;70.50;93006.75;2052025;70;20170;-78
2022/10/16 01:57:21;;;;;;;4.65;2.50;;;;;;;13.67;70.11;93006.97;2051718;69;20158;-79
2022/10/16 01:59:54;;;;;;;4.57;2.25;;;;;;;13.59;71.26;93019.94;2051906;70;20605;-81
2022/10/16 02:02:22;;;;;;;4.15;2.60;;;;;;;13.56;71.47;93018.34;2051692;70;20613;-78
2022/10/16 02:05:07;;;;;;;7.38;2.58;;;;;;;13.69;69.83;93026.16;2051706;70;20157;-79
2022/10/16 02:07:33;;;;;;;6.60;2.38;;;;;;;13.65;70.43;93026.69;2051847;70;20632;-79
2022/10/16 02:10:00;;;;;;;6.93;2.58;;;;;;;13.62;70.72;93027.94;2051817;70;20166;-78
2022/10/16 02:12:30;;;;;;;9.48;2.53;;;;;;;13.59;70.31;93022.78;2051789;70;20220;-79
2022/10/16 02:14:57;;;;;;;6.30;2.42;;;;;;;13.55;71.78;93023.28;2051922;70;20158;-79
2022/10/16 02:17:22;;;;;;;6.05;2.33;;;;;;;13.66;70.03;93030.97;2051620;70;20146;-79
2022/10/16 02:19:53;;;;;;;3.70;2.15;;;;;;;13.69;70.34;93018.41;2051699;70;20173;-79
2022/10/16 02:22:31;;;;;;;4.47;2.30;;;;;;;13.32;72.50;93026.97;2051720;70;20592;-78
2022/10/16 02:25:02;;;;;;;8.05;2.63;;;;;;;13.27;73.00;93044.34;2051135;70;20153;-77
2022/10/16 02:27:51;;;;;;;7.10;2.72;;;;;;;13.48;71.49;93041.28;2051695;69;20258;-77
2022/10/16 02:30:32;;;;;;;7.78;2.60;;;;;;;13.48;71.42;93042.03;2050839;70;20142;-76
2022/10/16 02:33:00;;;;;;;6.93;2.50;;;;;;;13.56;70.90;93038.16;2051733;70;20142;-79
2022/10/16 02:35:27;;;;;;;4.35;2.50;;;;;;;13.55;71.56;93037.44;2051685;70;20178;-79
2022/10/16 02:37:54;;;;;;;5.82;2.17;;;;;;;13.57;70.90;93031.16;2051666;70;20138;-78
2022/10/16 02:40:21;;;;;;;9.27;2.45;;;;;;;13.58;70.34;93036.19;2051677;70;20237;-78
2022/10/16 02:42:55;;;;;;;7.28;2.55;;;;;;;12.98;75.44;93037.78;2051673;70;20150;-80
2022/10/16 02:45:21;;;;;;;6.88;2.60;;;;;;;13.30;73.19;93043.84;2051596;70;20142;-79
2022/10/16 02:47:47;;;;;;;4.78;2.60;;;;;;;13.41;71.54;93054.34;2051553;70;20605;-78
2022/10/16 02:50:13;;;;;;;6.10;2.50;;;;;;;13.46;71.35;93050.38;2051610;70;20138;-79
2022/10/16 02:52:38;;;;;;;10.55;2.80;;;;;;;13.45;71.56;93040.44;2051595;70;20170;-79
2022/10/16 02:55:04;;;;;;;6.82;2.53;;;;;;;13.50;71.65;93051.97;2051656;70;20150;-79
2022/10/16 02:57:31;;;;;;;6.72;2.40;;;;;;;13.48;72.27;93053.34;2051138;70;20142;-79
2022/10/16 02:59:56;;;;;;;8.88;2.50;;;;;;;13.48;71.46;93052.59;2051165;70;20154;-79
2022/10/16 03:02:22;;;;;;;6.82;2.50;;;;;;;13.54;70.44;93052.19;2051369;70;20276;-79
2022/10/16 03:04:47;;;;;;;12.10;3.03;;;;;;;13.53;70.82;93053.56;2051545;70;20213;-79
2022/10/16 03:07:13;;;;;;;9.60;2.88;;;;;;;13.53;70.79;93050.72;2051616;70;20713;-77
2022/10/16 03:09:38;;;;;;;8.48;2.40;;;;;;;12.98;74.88;93062.47;2051047;70;20178;-79
2022/10/16 03:12:04;;;;;;;6.40;2.38;;;;;;;13.29;72.49;93062.16;2051661;70;20162;-78
2022/10/16 03:14:30;;;;;;;9.40;2.92;;;;;;;13.34;72.30;93057.47;2051348;70;20158;-78
2022/10/16 03:16:55;;;;;;;11.45;2.80;;;;;;;13.36;72.42;93063.97;2051359;69;20141;-78
2022/10/16 03:19:21;;;;;;;3.33;2.38;;;;;;;13.43;70.89;93054.47;2051493;70;20569;-78
2022/10/16 03:21:47;;;;;;;8.18;2.40;;;;;;;13.35;71.70;93051.19;2051618;70;20626;-78
2022/10/16 03:24:13;;;;;;;18.25;2.92;;;;;;;13.37;71.79;93045.63;2051424;70;20138;-79
2022/10/16 03:26:39;;;;;;;11.18;2.15;;;;;;;13.39;72.40;93050.69;2051457;70;20600;-78
2022/10/16 03:29:05;;;;;;;4.40;2.17;;;;;;;13.41;71.07;93045.13;2048337;70;20147;-80
2022/10/16 03:31:30;;;;;;;4.97;2.03;;;;;;;13.44;70.42;93055.19;2051408;70;20143;-80
2022/10/16 03:33:56;;;;;;;6.15;2.30;;;;;;;13.41;69.87;93053.59;2051930;70;20153;-79
2022/10/16 03:36:22;;;;;;;7.32;2.70;;;;;;;13.44;69.99;93050.28;2051931;70;20155;-78
2022/10/16 03:38:48;;;;;;;5.68;2.85;;;;;;;13.37;70.97;93059.78;2052100;70;20258;-77
2022/10/16 03:41:13;;;;;;;7.57;3.42;;;;;;;13.37;71.07;93059.78;2048594;70;20146;-79
2022/10/16 03:43:39;;;;;;;6.30;3.78;;;;;;;13.41;70.30;93068.47;2051883;70;20190;-78
2022/10/16 03:46:05;;;;;;;11.40;4.95;;;;;;;13.34;71.10;93066.69;2051868;70;20149;-80
2022/10/16 03:48:31;;;;;;;8.98;5.82;;;;;;;13.29;71.84;93069.91;2051940;70;20142;-79
2022/10/16 03:50:57;;;;;;;7.13;4.03;;;;;;;13.26;71.54;93071.88;2051390;70;20141;-80
2022/10/16 03:53:24;;;;;;;6.85;3.40;;;;;;;13.25;71.11;93067.59;2052052;70;20146;-77
2022/10/16 03:55:51;;;;;;;6.88;3.25;;;;;;;13.32;70.91;93060.16;2051959;70;20590;-79
2022/10/16 03:58:17;;;;;;;6.90;3.83;;;;;;;13.25;71.63;93067.59;2052054;70;20130;-80
2022/10/16 04:00:43;;;;;;;8.00;3.70;;;;;;;13.20;71.35;93054.56;2051849;70;20149;-80
2022/10/16 04:03:09;;;;;;;4.18;2.45;;;;;;;13.25;71.58;93066.84;2052014;70;20249;-80
2022/10/16 04:05:35;;;;;;;8.18;2.83;;;;;;;13.27;70.41;93055.66;2052007;70;20225;-80
2022/10/16 04:08:00;;;;;;;5.63;3.17;;;;;;;13.11;71.72;93061.84;2051959;70;20139;-80
2022/10/16 04:10:26;;;;;;;5.60;3.22;;;;;;;13.15;72.46;93064.16;2051983;70;20146;-80
2022/10/16 04:12:54;;;;;;;5.53;3.22;;;;;;;13.15;72.16;93061.34;2052048;70;20241;-80
2022/10/16 04:15:20;;;;;;;12.48;3.75;;;;;;;13.14;71.86;93066.22;2048643;70;20237;-80
2022/10/16 04:17:46;;;;;;;6.35;2.08;;;;;;;13.12;71.57;93073.88;2051855;70;20146;-80
2022/10/16 04:20:12;;;;;;;4.72;2.95;;;;;;;12.67;75.35;93082.56;2051911;70;20134;-79
2022/10/16 04:22:37;;;;;;;6.88;3.17;;;;;;;12.80;73.57;93084.03;2052252;70;20146;-79
2022/10/16 04:25:03;;;;;;;9.30;3.08;;;;;;;12.94;72.16;93088.41;2052121;70;20597;-78
2022/10/16 04:27:31;;;;;;;6.93;3.35;;;;;;;12.98;72.12;93097.13;2051928;70;20194;-78
2022/10/16 04:29:57;;;;;;;7.93;4.22;;;;;;;12.96;72.46;93096.25;2051943;70;20146;-79
2022/10/16 04:32:23;;;;;;;8.98;3.63;;;;;;;12.94;72.92;93096.16;2051784;70;20155;-79
2022/10/16 04:34:48;;;;;;;9.63;4.30;;;;;;;12.93;72.51;93115.19;2051869;70;20179;-77
2022/10/16 04:37:14;;;;;;;11.50;6.13;;;;;;;12.89;73.05;93114.22;2048292;70;20139;-79
2022/10/16 04:39:40;;;;;;;28.30;16.25;;;;;;;12.99;71.23;93109.16;2051883;70;20154;-78
2022/10/16 04:42:05;;;;;;;10.07;3.97;;;;;;;12.67;73.44;93105.91;2051968;70;20610;-79
2022/10/16 04:44:31;;;;;;;11.70;3.50;;;;;;;12.63;74.13;93105.66;2051679;70;20189;-79
2022/10/16 04:46:56;;;;;;;6.05;3.60;;;;;;;12.68;73.70;93113.03;2052043;70;20161;-79
2022/10/16 04:49:22;;;;;;;9.73;4.00;;;;;;;12.75;74.03;93116.94;2051935;70;20138;-79
2022/10/16 04:51:47;;;;;;;10.15;4.10;;;;;;;12.85;72.97;93109.06;2052002;70;20142;-80
2022/10/16 04:54:13;;;;;;;8.05;4.70;;;;;;;12.77;73.53;93105.75;2051902;70;20522;-79
2022/10/16 04:56:47;;;;;;;11.75;4.63;;;;;;;12.81;72.69;93105.28;2051968;70;20629;-80
2022/10/16 04:59:14;;;;;;;7.90;4.07;;;;;;;12.83;72.13;93103.31;2051890;70;20213;-80
2022/10/16 05:01:40;;;;;;;9.52;4.25;;;;;;;12.78;72.56;93107.22;2051274;70;20145;-80
2022/10/16 05:04:06;;;;;;;8.40;5.18;;;;;;;12.76;73.29;93112.78;2051936;70;20154;-77
2022/10/16 05:06:31;;;;;;;14.02;4.82;;;;;;;12.75;73.38;93116.22;2051786;70;20169;-79
2022/10/16 05:08:57;;;;;;;9.98;4.53;;;;;;;12.77;73.09;93121.97;2051800;70;20233;-79
2022/10/16 05:11:24;;;;;;;6.53;3.40;;;;;;;12.73;72.92;93120.38;2051785;69;20134;-79
2022/10/16 05:13:50;;;;;;;10.13;4.22;;;;;;;12.71;73.69;93113.88;2051851;70;20166;-78
2022/10/16 05:16:15;;;;;;;8.48;3.72;;;;;;;12.83;71.95;93117.44;2051680;70;20353;-79
2022/10/16 05:18:41;;;;;;;7.72;2.70;;;;;;;12.83;72.74;93114.63;2055892;70;20138;-76
2022/10/16 05:21:06;;;;;;;4.30;2.30;;;;;;;12.87;71.63;93112.00;2058126;70;20134;-77
2022/10/16 05:23:33;;;;;;;4.85;2.40;;;;;;;12.96;71.79;93113.94;2058359;70;20131;-73
2022/10/16 05:25:59;;;;;;;5.00;2.50;;;;;;;12.98;71.87;93116.19;2058325;70;20121;-74
2022/10/16 05:28:27;;;;;;;7.18;2.83;;;;;;;12.92;72.33;93122.22;2058046;70;20209;-78
2022/10/16 05:30:53;;;;;;;4.55;2.78;;;;;;;12.82;72.94;93127.25;2055385;70;20146;-81
2022/10/16 05:33:24;;;;;;;8.43;4.13;;;;;;;12.62;74.77;93131.69;2053076;70;20142;-76
2022/10/16 05:35:51;;;;;;;5.05;3.17;;;;;;;12.83;72.67;93136.47;2052839;70;20170;-77
2022/10/16 05:38:17;;;;;;;7.15;3.10;;;;;;;12.84;72.97;93146.44;2052702;70;20230;-77
2022/10/16 05:40:43;;;;;;;7.78;3.45;;;;;;;12.85;71.89;93133.78;2052420;70;20158;-79
2022/10/16 05:43:09;;;;;;;10.73;3.30;;;;;;;12.82;72.13;93115.22;2052036;70;20184;-78
2022/10/16 05:45:35;;;;;;;6.15;3.00;;;;;;;12.74;72.85;93115.50;2051623;70;20590;-78
2022/10/16 05:48:00;;;;;;;4.15;2.47;;;;;;;12.75;72.53;93114.13;2051817;70;20143;-77
2022/10/16 05:50:27;;;;;;;3.92;2.33;;;;;;;12.89;71.20;93117.78;2051658;70;20526;-78
2022/10/16 05:52:53;;;;;;;7.82;2.58;;;;;;;12.87;71.13;93109.19;2051817;70;20185;-79
2022/10/16 05:55:18;;;;;;;4.00;2.50;;;;;;;12.79;72.20;93120.03;2051611;69;20141;-80
2022/10/16 05:57:44;;;;;;;6.20;2.30;;;;;;;12.81;71.57;93125.03;2051726;70;20139;-80
2022/10/16 06:00:10;;;;;;;4.75;2.28;;;;;;;12.70;72.16;93130.09;2050828;70;20162;-78
2022/10/16 06:02:38;;;;;;;6.47;2.10;;;;;;;12.64;71.96;93143.84;2051660;70;20578;-78
2022/10/16 06:05:04;;;;;;;5.03;2.20;;;;;;;12.55;72.29;93156.00;2051579;70;20150;-78
2022/10/16 06:07:35;;;;;;;3.97;2.35;;;;;;;12.64;71.23;93148.75;2051731;70;20245;-76
2022/10/16 06:10:02;;;;;;;3.97;2.53;;;;;;;12.82;71.17;93141.38;2051571;70;20142;-76
2022/10/16 06:12:28;;;;;;;4.13;2.15;;;;;;;12.82;70.57;93143.47;2051780;70;20154;-77
2022/10/16 06:14:53;;;;;;;8.90;2.83;;;;;;;12.79;70.38;93145.44;2051686;70;20149;-77
2022/10/16 06:17:19;;;;;;;8.90;2.15;;;;;;;12.79;71.06;93153.94;2051665;70;20173;-77
2022/10/16 06:19:45;;;;;;;4.63;1.63;;;;;;;12.74;71.19;93157.88;2051695;70;20579;-78
2022/10/16 06:22:12;;;;;;;7.35;2.40;;;;;;;12.69;71.20;93165.34;2050875;70;20168;-76
2022/10/16 06:24:38;;;;;;;11.45;3.63;;;;;;;12.62;72.51;93177.63;2051753;70;20598;-78
2022/10/16 06:27:04;;;;;;;7.40;3.55;;;;;;;12.65;71.90;93176.41;2051580;70;20146;-77
2022/10/16 06:29:30;;;;;;;8.75;3.60;;;;;;;12.70;71.14;93172.47;2051512;70;20236;-77
2022/10/16 06:31:56;;;;;;;5.63;2.85;;;;;;;12.71;70.94;93185.25;2051520;70;20170;-78
2022/10/16 06:34:21;;;;;;;5.28;2.40;;;;;;;12.74;71.46;93188.94;2051648;70;20242;-77
2022/10/16 06:36:47;;;;;;;11.30;2.75;;;;;;;12.85;70.60;93184.63;2048256;70;20175;-77
2022/10/16 06:39:12;;;;;;;5.22;2.22;;;;;;;12.94;70.38;93183.75;2051564;70;20149;-76
2022/10/16 06:41:38;;;;;;;5.57;2.30;;;;;;;12.94;71.42;93189.41;2051564;70;20146;-76
2022/10/16 06:44:14;;;;;;;5.47;2.20;;;;;;;12.90;71.39;93192.00;2051577;70;20578;-76
2022/10/16 06:46:40;;;;;;;7.18;2.85;;;;;;;13.03;71.51;93190.63;2051436;70;20154;-76
2022/10/16 06:49:06;;;;;;;10.80;2.58;;;;;;;13.20;69.69;93187.41;2051713;70;20573;-78
2022/10/16 06:51:34;;;;;;;5.00;2.10;;;;;;;13.41;69.34;93195.75;2051612;70;20138;-78
2022/10/16 06:53:59;;;;;;;5.57;1.98;;;;;;;13.52;69.40;93199.19;2051744;70;20245;-79
2022/10/16 06:56:29;;;;;;;7.63;3.35;;;;;;;13.31;70.12;93203.63;2051618;70;20149;-78
2022/10/16 06:58:55;;;;;;;6.03;2.60;;;;;;;13.43;69.41;93207.19;2047981;70;20154;-79
2022/10/16 07:01:23;;;;;;;11.30;7.55;;;;;;;13.46;70.54;93210.84;2051415;70;20150;-77
2022/10/16 07:03:49;;;;;;;8.52;6.30;;;;;;;13.63;69.24;93206.88;2052253;70;20142;-78
2022/10/16 07:06:17;;;;;;;8.30;4.57;;;;;;;13.81;69.15;93210.03;2051585;70;20134;-76
2022/10/16 07:08:45;;;;;;;5.80;3.50;;;;;;;13.86;67.69;93208.88;2052562;70;20334;-77
2022/10/16 07:11:14;;;;;;;5.80;4.15;;;;;;;13.97;68.36;93205.25;2052559;70;20685;-78
2022/10/16 07:13:44;;;;;;;5.15;3.55;;;;;;;13.91;68.03;93211.31;2048597;70;20169;-77
2022/10/16 07:16:14;;;;;;;9.48;2.90;;;;;;;13.66;68.30;93220.53;2051893;70;20541;-78
2022/10/16 07:18:42;;;;;;;4.68;2.40;;;;;;;13.88;67.39;93214.66;2052193;70;20185;-78
2022/10/16 07:21:21;;;;;;;9.05;2.50;;;;;;;13.89;66.50;93222.53;2052042;70;20537;-78
2022/10/16 07:23:51;;;;;;;4.53;2.22;;;;;;;13.97;66.68;93223.00;2052088;70;20799;-79
2022/10/16 07:26:16;;;;;;;3.17;1.90;;;;;;;14.21;66.26;93223.63;2051984;70;20153;-80
2022/10/16 07:28:44;;;;;;;3.35;2.00;;;;;;;14.35;66.17;93223.69;2052068;70;20147;-79
2022/10/16 07:31:13;;;;;;;4.60;2.17;;;;;;;14.47;65.67;93232.09;2051955;70;20173;-78
2022/10/16 07:33:44;;;;;;;3.03;1.85;;;;;;;14.28;64.55;93230.34;2052060;70;20162;-79
2022/10/16 07:36:12;;;;;;;4.57;1.90;;;;;;;14.45;64.72;93238.41;2052050;70;20162;-79
2022/10/16 07:38:38;;;;;;;5.10;1.98;;;;;;;14.43;64.41;93234.69;2052040;69;20553;-78
2022/10/16 07:41:06;;;;;;;3.53;1.92;;;;;;;14.67;64.74;93236.06;2051418;70;20566;-80
2022/10/16 07:43:33;;;;;;;2.15;1.83;;;;;;;14.51;63.79;93243.69;2052027;70;20182;-79
2022/10/16 07:45:59;;;;;;;3.35;1.88;;;;;;;14.75;63.42;93252.75;2048361;70;20625;-76
2022/10/16 07:48:28;;;;;;;5.30;2.75;;;;;;;14.65;64.18;93247.28;2051965;70;20154;-76
2022/10/16 07:50:59;;;;;;;11.48;6.72;;;;;;;14.66;65.07;93253.69;2051927;70;20605;-78
2022/10/16 07:53:24;;;;;;;22.58;13.40;;;;;;;14.92;64.97;93246.63;2052154;70;20160;-79
2022/10/16 07:55:50;;;;;;;19.65;10.32;;;;;;;15.10;64.55;93248.94;2052162;70;20154;-79
2022/10/16 07:58:15;;;;;;;8.88;5.40;;;;;;;15.15;64.21;93254.19;2052012;70;20217;-80
2022/10/16 08:00:41;;;;;;;11.43;5.57;;;;;;;15.22;64.51;93256.00;2051906;70;20157;-80
2022/10/16 08:03:08;;;;;;;8.48;5.50;;;;;;;15.32;64.12;93252.22;2051989;70;20145;-80
2022/10/16 08:05:34;;;;;;;6.03;4.10;;;;;;;15.31;64.07;93259.28;2052145;70;20273;-78
2022/10/16 08:08:01;;;;;;;4.85;3.13;;;;;;;15.35;64.00;93250.94;2051943;70;20261;-80
2022/10/16 08:10:28;;;;;;;8.82;3.45;;;;;;;15.32;63.72;93255.06;2051104;70;20506;-80
2022/10/16 08:12:54;;;;;;;5.15;2.75;;;;;;;15.44;62.04;93262.09;2051895;70;20150;-82
2022/10/16 08:15:20;;;;;;;4.65;2.78;;;;;;;15.47;62.67;93251.59;2051766;70;20165;-81
2022/10/16 08:17:59;;;;;;;4.05;2.80;;;;;;;15.79;63.08;93249.69;2051759;70;20177;-81
2022/10/16 08:20:26;;;;;;;6.95;2.72;;;;;;;15.84;64.52;93253.47;2051037;70;20154;-79
2022/10/16 08:22:54;;;;;;;5.35;2.88;;;;;;;16.23;61.81;93247.59;2048625;70;20150;-79
2022/10/16 08:25:20;;;;;;;8.32;3.20;;;;;;;16.60;62.26;93250.06;2051864;70;20139;-79
2022/10/16 08:27:46;;;;;;;10.18;3.60;;;;;;;16.83;61.16;93243.34;2051957;70;20139;-81
2022/10/16 08:30:15;;;;;;;6.75;2.75;;;;;;;17.15;60.46;93249.06;2051821;70;20147;-78
2022/10/16 08:32:41;;;;;;;4.90;2.55;;;;;;;17.12;56.73;93242.53;2050929;70;20177;-81
2022/10/16 08:35:09;;;;;;;5.65;2.42;;;;;;;17.71;61.64;93250.81;2048551;70;20170;-81
2022/10/16 08:37:35;;;;;;;6.35;2.42;;;;;;;17.99;58.93;93253.44;2054005;69;20168;-78
2022/10/16 08:40:01;;;;;;;10.52;4.07;;;;;;;18.42;57.35;93252.38;2051811;70;20145;-79
2022/10/16 08:42:35;;;;;;;8.52;3.25;;;;;;;18.73;56.52;93257.91;2051850;70;20154;-78
2022/10/16 08:45:39;;;;;;;9.07;2.80;;;;;;;19.29;55.14;93260.75;2050850;70;20162;-79
2022/10/16 08:48:28;;;;;;;8.05;2.67;;;;;;;19.33;52.89;93254.44;2051776;70;20272;-78
2022/10/16 08:50:54;;;;;;;6.45;2.55;;;;;;;19.62;55.09;93259.84;2051889;70;20143;-78
2022/10/16 08:53:30;;;;;;;5.97;2.80;;;;;;;20.29;51.41;93262.16;2052282;70;20648;-78
2022/10/16 08:55:58;;;;;;;8.07;3.00;;;;;;;20.27;51.24;93262.09;2051911;70;20147;-79
2022/10/16 08:58:29;;;;;;;10.93;3.53;;;;;;;20.30;50.60;93260.06;2053999;70;20130;-78
2022/10/16 09:00:59;;;;;;;7.05;3.35;;;;;;;20.26;51.96;93254.94;2051228;70;20293;-81
2022/10/16 09:04:02;;;;;;;9.50;3.33;;;;;;;20.94;52.28;93257.13;2051806;70;20233;-78
2022/10/16 09:06:42;;;;;;;6.63;2.60;;;;;;;21.41;50.78;93249.97;2051924;70;20154;-77
2022/10/16 09:09:24;;;;;;;8.02;3.17;;;;;;;21.07;49.02;93253.22;2051790;70;20145;-79
2022/10/16 09:12:02;;;;;;;7.90;3.30;;;;;;;21.22;49.75;93242.94;2051443;70;20257;-78
2022/10/16 09:14:47;;;;;;;6.88;3.05;;;;;;;21.38;46.77;93245.56;2051724;70;20302;-77
2022/10/16 09:17:24;;;;;;;8.20;2.83;;;;;;;22.00;47.51;93243.75;2051650;69;20225;-78
2022/10/16 09:20:13;;;;;;;6.95;3.15;;;;;;;22.38;48.46;93245.47;2053941;70;20181;-77
2022/10/16 09:22:40;;;;;;;4.55;2.85;;;;;;;21.85;47.76;93250.47;2051773;70;20151;-77
2022/10/16 09:25:18;;;;;;;7.57;3.22;;;;;;;22.07;46.95;93253.97;2051901;70;20247;-77
2022/10/16 09:27:46;;;;;;;7.22;2.53;;;;;;;21.39;47.20;93259.22;2053925;69;20150;-78
2022/10/16 09:30:16;;;;;;;5.32;2.53;;;;;;;21.13;46.94;93264.88;2051585;70;20146;-78
2022/10/16 09:32:44;;;;;;;17.85;10.13;;;;;;;22.11;45.61;93256.22;2047968;70;20149;-79
2022/10/16 09:35:25;;;;;;;10.02;4.57;;;;;;;22.26;44.44;93263.06;2053884;70;20138;-78
2022/10/16 09:37:54;;;;;;;6.03;3.00;;;;;;;23.12;44.93;93263.06;2051654;70;20173;-78
2022/10/16 09:40:38;;;;;;;6.60;3.50;;;;;;;23.56;42.61;93253.97;2051629;70;20160;-78
2022/10/16 09:43:46;;;;;;;10.45;4.63;;;;;;;23.41;43.03;93252.19;2053418;70;20162;-78
2022/10/16 09:46:30;;;;;;;11.05;6.47;;;;;;;22.82;43.06;93240.81;2037080;70;20632;-76
2022/10/16 09:49:26;;;;;;;16.10;8.52;;;;;;;23.17;41.63;93235.88;2034564;70;20183;-78
2022/10/16 09:52:12;;;;;;;22.17;12.60;;;;;;;23.97;41.57;93241.19;2037483;70;20140;-80
2022/10/16 09:55:01;;;;;;;18.67;8.65;;;;;;;23.76;42.96;93242.19;2037290;70;20536;-77
2022/10/16 09:57:27;;;;;;;11.40;4.55;;;;;;;24.37;42.44;93245.53;2036810;70;20159;-76
2022/10/16 09:59:58;;;;;;;13.18;5.45;;;;;;;25.08;41.02;93233.06;2037222;70;20587;-79
2022/10/16 10:02:30;;;;;;;13.52;6.70;;;;;;;24.72;40.29;93232.47;2037138;70;20152;-79
2022/10/16 10:04:56;;;;;;;9.68;3.70;;;;;;;24.39;39.17;93229.03;2037231;70;20286;-78
2022/10/16 10:07:35;;;;;;;8.77;4.07;;;;;;;25.43;39.88;93233.56;2037378;70;20151;-79
2022/10/16 10:10:04;;;;;;;5.90;3.47;;;;;;;24.73;39.54;93228.16;2037334;70;20147;-76
2022/10/16 10:12:37;;;;;;;9.88;4.28;;;;;;;25.52;39.55;93226.47;2037302;70;20155;-80
2022/10/16 10:15:12;;;;;;;9.98;4.47;;;;;;;25.68;38.61;93223.06;2036206;70;20194;-77
2022/10/16 10:17:50;;;;;;;11.73;6.55;;;;;;;26.61;37.47;93226.28;2040145;70;20695;-80
2022/10/16 10:20:35;;;;;;;12.50;6.88;;;;;;;25.70;36.63;93228.84;2041529;70;20170;-80
2022/10/16 10:23:21;;;;;;;10.50;4.15;;;;;;;26.16;37.64;93225.09;2044044;70;20273;-79
2022/10/16 10:25:47;;;;;;;7.00;3.30;;;;;;;26.95;36.99;93227.31;2044404;70;20151;-77
2022/10/16 10:28:37;;;;;;;6.60;4.30;;;;;;;26.75;36.07;93227.84;2049225;70;20146;-80
2022/10/16 10:31:20;;;;;;;4.72;2.85;;;;;;;27.76;35.95;93224.22;2044121;70;20607;-80
2022/10/16 10:34:21;;;;;;;5.53;3.13;;;;;;;27.90;34.86;93224.28;2044158;70;20607;-79
2022/10/16 10:36:55;;;;;;;2.65;2.42;;;;;;;28.62;34.49;93223.06;2043701;70;20183;-78
2022/10/16 10:39:40;;;;;;;8.13;2.60;;;;;;;28.86;32.96;93233.22;2042122;70;20147;-80
2022/10/16 10:42:14;;;;;;;10.23;3.33;;;;;;;28.87;32.52;93229.59;2040664;70;20619;-79
2022/10/16 10:45:05;;;;;;;8.07;2.88;;;;;;;29.30;32.33;93218.00;2040630;70;20155;-81
2022/10/16 10:47:34;;;;;;;8.27;3.05;;;;;;;30.05;31.49;93219.28;2040637;70;20259;-80
2022/10/16 10:50:16;;;;;;;5.13;2.80;;;;;;;30.78;29.66;93215.28;2040826;70;20591;-79
2022/10/16 10:53:14;;;;;;;4.10;2.45;;;;;;;30.86;29.60;93210.13;2040923;70;20160;-81
2022/10/16 10:55:50;;;;;;;5.55;2.45;;;;;;;32.30;26.47;93221.06;2040925;70;20143;-82
2022/10/16 10:58:26;;;;;;;4.70;2.35;;;;;;;34.23;26.95;93214.31;2040625;70;20158;-78
2022/10/16 11:01:06;;;;;;;3.80;2.28;;;;;;;33.94;26.49;93208.28;2040750;70;20157;-79
2022/10/16 11:03:43;;;;;;;4.55;2.08;;;;;;;35.57;24.53;93215.69;2040979;70;20203;-77
2022/10/16 11:06:17;;;;;;;7.78;2.90;;;;;;;37.28;21.93;93213.69;2040935;70;20143;-78
2022/10/16 11:08:46;;;;;;;5.15;2.60;;;;;;;36.47;23.30;93210.31;2041154;70;20687;-77
2022/10/16 11:11:20;;;;;;;7.47;2.40;;;;;;;35.66;22.25;93202.28;2045673;70;20139;-76
2022/10/16 11:13:56;;;;;;;5.13;2.50;;;;;;;36.48;21.81;93197.84;2040801;70;20166;-77
2022/10/16 11:16:37;;;;;;;11.02;2.88;;;;;;;37.04;20.89;93193.94;2046085;70;20150;-76
2022/10/16 11:19:13;;;;;;;9.27;2.95;;;;;;;36.16;21.60;93195.81;2047653;70;20205;-77
2022/10/16 11:21:54;;;;;;;4.43;2.13;;;;;;;37.11;22.60;93195.16;2047822;70;20146;-76
2022/10/16 11:24:47;;;;;;;6.50;2.23;;;;;;;38.05;20.70;93192.75;2047800;70;20169;-76
2022/10/16 11:27:18;;;;;;;12.13;2.90;;;;;;;36.38;21.90;93186.38;2046572;70;20602;-75
2022/10/16 11:29:57;;;;;;;13.55;3.13;;;;;;;38.41;20.24;93189.31;2047787;70;20259;-78
2022/10/16 11:32:28;;;;;;;9.30;2.67;;;;;;;36.38;21.96;93177.56;2047448;70;20513;-77
2022/10/16 11:34:57;;;;;;;;;;;;;;;35.77;22.06;93177.06;2047719;70;20245;-77
2022/10/16 11:37:43;;;;;;;9.68;2.75;;;;;;;39.06;21.02;93175.75;2047800;70;20067;-79
2022/10/16 11:40:47;;;;;;;10.57;2.70;;;;;;;37.56;22.11;93173.16;2047602;70;20142;-76
2022/10/16 11:43:25;;;;;;;10.15;2.33;;;;;;;39.41;19.16;93177.31;2039738;70;20170;-77
2022/10/16 11:45:57;;;;;;;14.75;2.83;;;;;;;37.87;20.27;93170.63;2039575;70;20312;-77
2022/10/16 11:48:43;;;;;;;11.55;2.58;;;;;;;39.74;19.73;93167.81;2039796;70;20625;-77